Time;durP1;ratioP1;P1;durP2;ratioP2;P2;SDS_P1;SDS_P2;PMS_P1;PMS_P2;Temp;Humidity;BMP_temperature;BMP_pressure;BME280_temperature;BME280_humidity;BME280_pressure;Samples;Min_cycle;Max_cycle;Signal;HPM_P1;HPM_P2
2023/09/22 00:02:47;;;;;;;12.05;4.20;;;;;;;-145.68;71.64;71725.25;10415627;28;20561;-73
2023/09/22 00:07:47;;;;;;;7.07;4.25;;;;;;;-145.68;71.57;71725.25;10453529;28;20200;-73
2023/09/22 00:12:47;;;;;;;5.13;4.22;;;;;;;-145.68;71.79;71731.25;10449891;28;20211;-74
2023/09/22 00:17:48;;;;;;;7.68;4.72;;;;;;;-145.68;71.98;71733.25;10449462;28;20194;-73
2023/09/22 00:22:48;;;;;;;5.82;4.07;;;;;;;-145.68;73.67;71765.22;10451376;28;20306;-73
2023/09/22 00:27:49;;;;;;;9.30;4.47;;;;;;;-145.68;74.85;71791.19;10431844;28;20568;-73
2023/09/22 00:32:49;;;;;;;6.90;5.72;;;;;;;-145.68;75.09;71841.13;10448923;28;20231;-73
2023/09/22 00:37:50;;;;;;;8.13;4.40;;;;;;;-145.68;73.53;71807.19;10449207;28;20259;-73
2023/09/22 00:43:11;;;;;;;5.68;4.38;;;;;;;-145.68;73.20;71807.19;10437290;28;20282;-74
2023/09/22 00:48:20;;;;;;;8.77;4.38;;;;;;;-145.68;72.54;71811.16;10430325;28;20266;-74
2023/09/22 00:53:21;;;;;;;8.32;4.35;;;;;;;-145.68;72.51;71813.16;10433642;28;20287;-74
2023/09/22 00:58:23;;;;;;;5.22;4.05;;;;;;;-145.68;71.67;71819.16;10447701;28;20195;-74
2023/09/22 01:03:23;;;;;;;6.60;4.03;;;;;;;-145.68;72.11;71845.13;10432680;28;20262;-74
2023/09/22 01:08:25;;;;;;;4.18;3.58;;;;;;;-145.68;72.46;71855.13;10430285;28;20215;-74
2023/09/22 01:13:26;;;;;;;10.05;3.95;;;;;;;-145.68;72.57;71865.13;10454612;28;20552;-74
2023/09/22 01:18:28;;;;;;;7.15;3.78;;;;;;;-145.68;72.77;71877.09;10425769;28;20188;-73
2023/09/22 01:23:28;;;;;;;6.30;3.67;;;;;;;-145.68;73.97;71899.09;10432586;28;20306;-74
2023/09/22 01:28:29;;;;;;;5.03;3.67;;;;;;;-145.68;74.51;71913.06;10447328;28;20184;-74
2023/09/22 01:33:29;;;;;;;5.13;3.33;;;;;;;-145.68;73.67;71937.03;10446882;28;20196;-74
2023/09/22 01:38:29;;;;;;;3.72;2.67;;;;;;;-145.68;72.21;71943.03;10432899;28;20544;-75
2023/09/22 01:43:31;;;;;;;4.20;2.35;;;;;;;-145.68;72.09;71943.03;10428787;28;20664;-73
2023/09/22 01:48:32;;;;;;;2.20;2.00;;;;;;;-145.68;70.94;71953.03;10446699;28;20231;-73
2023/09/22 01:53:32;;;;;;;2.88;2.00;;;;;;;-145.68;69.87;71949.03;10446082;28;20543;-73
2023/09/22 01:58:32;;;;;;;6.78;2.22;;;;;;;-145.68;70.15;71963.03;10449299;28;20219;-73
2023/09/22 02:03:33;;;;;;;1.75;1.60;;;;;;;-145.68;70.54;71996.97;10428237;28;20215;-73
2023/09/22 02:08:35;;;;;;;4.53;1.70;;;;;;;-145.68;70.07;72000.97;10445125;28;20208;-73
2023/09/22 02:13:36;;;;;;;1.70;1.25;;;;;;;-145.68;69.37;71993.00;10427795;28;20180;-73
2023/09/22 02:18:36;;;;;;;1.25;1.17;;;;;;;-145.68;70.23;72006.97;10448990;28;20915;-73
2023/09/22 02:23:37;;;;;;;2.38;1.10;;;;;;;-145.68;71.22;72044.94;10427951;28;20226;-74
2023/09/22 02:28:38;;;;;;;3.97;1.20;;;;;;;-145.68;73.61;72092.91;10445566;28;20192;-74
2023/09/22 02:33:38;;;;;;;1.30;1.20;;;;;;;-145.68;75.05;72132.84;10445386;28;20192;-74
2023/09/22 02:38:38;;;;;;;2.13;1.50;;;;;;;-145.68;78.97;72192.78;10435046;28;20200;-74
2023/09/22 02:43:39;;;;;;;1.60;1.42;;;;;;;-145.68;78.55;72164.81;10445122;28;20220;-74
2023/09/22 02:48:39;;;;;;;1.10;1.00;;;;;;;-145.68;74.06;72122.88;10450061;28;20634;-73
2023/09/22 02:53:39;;;;;;;0.77;0.77;;;;;;;-145.68;72.09;72104.88;10435561;28;20196;-73
2023/09/22 02:58:40;;;;;;;1.30;0.77;;;;;;;-145.68;71.29;72118.88;10458963;28;20261;-73
2023/09/22 03:03:44;;;;;;;0.50;0.50;;;;;;;-145.68;71.35;72124.88;10435081;28;20224;-74
2023/09/22 03:08:44;;;;;;;2.05;0.57;;;;;;;-145.68;71.27;72162.81;10434447;28;20256;-73
2023/09/22 03:13:45;;;;;;;0.50;0.50;;;;;;;-145.68;71.03;72182.81;10428253;28;20276;-73
2023/09/22 03:18:47;;;;;;;0.40;0.40;;;;;;;-145.68;70.02;72182.81;10451956;28;20192;-73
2023/09/22 03:23:48;;;;;;;0.55;0.45;;;;;;;-145.68;68.92;72192.78;10432720;28;20207;-73
2023/09/22 03:28:49;;;;;;;0.50;0.50;;;;;;;-145.68;68.62;72222.78;10433947;28;20241;-73
2023/09/22 03:33:50;;;;;;;0.45;0.45;;;;;;;-145.68;67.61;72232.75;10435878;28;20176;-73
2023/09/22 03:38:51;;;;;;;0.55;0.55;;;;;;;-145.68;68.18;72262.72;10433129;28;20192;-73
2023/09/22 03:43:52;;;;;;;0.65;0.50;;;;;;;-145.68;67.85;72266.72;10432545;28;20289;-73
2023/09/22 03:48:52;;;;;;;0.43;0.35;;;;;;;-145.68;68.06;72272.72;10433948;28;20227;-73
2023/09/22 03:53:52;;;;;;;0.60;0.50;;;;;;;-145.68;68.76;72256.75;10454597;28;20191;-73
2023/09/22 03:58:53;;;;;;;0.60;0.60;;;;;;;-145.68;69.41;72276.72;10431780;28;20195;-73
2023/09/22 04:03:53;;;;;;;0.50;0.50;;;;;;;-145.68;69.70;72300.69;10451082;28;20228;-73
2023/09/22 04:08:54;;;;;;;0.50;0.50;;;;;;;-145.68;69.26;72300.69;10432421;28;20198;-73
2023/09/22 04:13:54;;;;;;;2.25;0.68;;;;;;;-145.68;69.90;72300.69;10452478;28;20196;-73
2023/09/22 04:18:55;;;;;;;0.60;0.60;;;;;;;-145.68;69.82;72296.69;10450495;28;20191;-73
2023/09/22 04:23:58;;;;;;;0.52;0.52;;;;;;;-145.68;70.80;72312.69;10431516;28;20584;-73
2023/09/22 04:28:59;;;;;;;0.60;0.60;;;;;;;-145.68;71.45;72316.69;10432659;28;20203;-73
2023/09/22 04:34:01;;;;;;;1.83;0.70;;;;;;;-145.68;72.15;72344.66;10451407;28;20196;-73
2023/09/22 04:39:01;;;;;;;0.70;0.60;;;;;;;-145.68;72.50;72334.66;10449433;28;20192;-73
2023/09/22 04:44:02;;;;;;;0.70;0.60;;;;;;;-145.68;72.67;72362.66;10449051;28;20220;-73
2023/09/22 04:49:02;;;;;;;0.73;0.70;;;;;;;-145.68;73.76;72366.63;10450763;28;20227;-73
2023/09/22 04:54:03;;;;;;;0.60;0.60;;;;;;;-145.68;74.23;72378.63;10448681;28;20203;-73
2023/09/22 04:59:04;;;;;;;0.57;0.57;;;;;;;-145.68;73.78;72368.63;10448677;28;20203;-73
2023/09/22 05:04:04;;;;;;;2.13;0.73;;;;;;;-145.68;73.94;72360.66;10450642;28;20215;-73
2023/09/22 05:09:07;;;;;;;0.77;0.77;;;;;;;-145.68;72.94;72346.66;10449257;28;20195;-74
2023/09/22 05:14:07;;;;;;;0.70;0.70;;;;;;;-145.68;73.53;72350.66;10445632;28;20195;-73
2023/09/22 05:19:07;;;;;;;1.60;0.82;;;;;;;-145.68;73.35;72356.66;10448171;28;20639;-73
2023/09/22 05:24:08;;;;;;;2.47;0.70;;;;;;;-145.68;73.04;72344.66;10447221;28;20246;-73
2023/09/22 05:29:08;;;;;;;0.75;0.60;;;;;;;-145.68;74.13;72380.63;10449859;28;20358;-73
2023/09/22 05:34:08;;;;;;;1.05;0.90;;;;;;;-145.68;75.75;72420.59;10447117;28;20194;-73
2023/09/22 05:39:10;;;;;;;0.70;0.70;;;;;;;-145.68;77.58;72426.59;10447786;28;20199;-73
2023/09/22 05:44:11;;;;;;;0.60;0.60;;;;;;;-145.68;77.33;72416.59;10447128;28;20215;-74
2023/09/22 05:49:14;;;;;;;0.85;0.85;;;;;;;-145.68;80.04;72470.53;10448542;28;20244;-73
2023/09/22 05:54:14;;;;;;;0.80;0.80;;;;;;;-145.68;80.55;72448.56;10446918;28;20234;-73
2023/09/22 05:59:15;;;;;;;0.90;0.90;;;;;;;-145.68;85.20;72472.53;10446827;28;20192;-74
2023/09/22 06:04:15;;;;;;;0.80;0.80;;;;;;;-145.68;95.59;72530.50;10447153;28;20220;-74
2023/09/22 06:09:15;;;;;;;1.25;0.77;;;;;;;-145.68;100.00;72542.50;10447617;28;20723;-74
2023/09/22 06:14:16;;;;;;;0.80;0.80;;;;;;;-145.68;100.00;72548.47;10428520;28;20191;-73
2023/09/22 06:19:16;;;;;;;0.60;0.60;;;;;;;-145.68;100.00;72542.50;10446336;28;20187;-73
2023/09/22 06:24:17;;;;;;;1.27;1.00;;;;;;;-145.68;100.00;72542.50;10456025;28;20208;-74
2023/09/22 06:29:18;;;;;;;1.60;0.90;;;;;;;-145.68;100.00;72558.47;10436675;28;20921;-73
2023/09/22 06:34:19;;;;;;;1.30;1.13;;;;;;;-145.68;100.00;72566.47;10453925;28;20188;-74
2023/09/22 06:39:20;;;;;;;1.15;1.10;;;;;;;-145.68;100.00;72584.44;10453860;28;20203;-74
2023/09/22 06:44:20;;;;;;;1.40;1.05;;;;;;;-145.68;100.00;72620.41;10454396;28;20584;-74
2023/09/22 06:49:24;;;;;;;0.82;0.82;;;;;;;-145.68;100.00;72624.41;10434577;28;20673;-74
2023/09/22 06:54:25;;;;;;;0.90;0.90;;;;;;;-145.68;100.00;72622.41;10436322;28;20253;-74
2023/09/22 06:59:26;;;;;;;3.15;0.90;;;;;;;-145.68;100.00;72610.44;10452885;28;20565;-74
2023/09/22 07:04:27;;;;;;;1.10;0.98;;;;;;;-145.68;100.00;72614.44;10454632;28;20219;-74
2023/09/22 07:09:27;;;;;;;0.90;0.90;;;;;;;-145.68;100.00;72610.44;10452210;28;20670;-74
2023/09/22 07:14:29;;;;;;;1.73;0.80;;;;;;;-145.68;100.00;72598.44;10452862;28;20188;-75
2023/09/22 07:19:31;;;;;;;1.00;0.68;;;;;;;-145.68;100.00;72562.47;10451449;28;20643;-74
2023/09/22 07:24:32;;;;;;;1.20;0.88;;;;;;;-145.68;100.00;72544.50;10454375;28;20303;-74
2023/09/22 07:29:32;;;;;;;4.47;1.05;;;;;;;-145.68;99.61;72534.50;10451750;28;20200;-74
2023/09/22 07:34:33;;;;;;;1.02;0.90;;;;;;;-145.68;95.75;72558.47;10450528;28;20546;-73
2023/09/22 07:39:35;;;;;;;1.10;0.70;;;;;;;-145.68;94.85;72548.47;10459325;28;20335;-73
2023/09/22 07:44:36;;;;;;;1.92;0.70;;;;;;;-145.68;93.93;72540.50;10446865;28;20218;-74
2023/09/22 07:49:37;;;;;;;1.35;1.00;;;;;;;-145.68;92.75;72534.50;10450692;28;20722;-74
2023/09/22 07:54:37;;;;;;;1.15;0.95;;;;;;;-145.68;93.52;72556.47;10451197;28;20188;-74
2023/09/22 07:59:38;;;;;;;3.05;1.15;;;;;;;-145.68;92.37;72558.47;10452380;28;20199;-74
2023/09/22 08:04:39;;;;;;;1.40;1.00;;;;;;;-145.68;92.77;72580.47;10450724;28;20277;-74
2023/09/22 08:09:40;;;;;;;2.13;0.98;;;;;;;-145.68;99.47;72608.44;10450105;28;20287;-74
2023/09/22 08:14:41;;;;;;;0.93;0.82;;;;;;;-145.68;100.00;72624.41;10450391;28;20196;-74
2023/09/22 08:19:42;;;;;;;2.47;1.25;;;;;;;-145.68;100.00;72636.41;10451540;28;20191;-74
2023/09/22 08:24:42;;;;;;;1.45;0.85;;;;;;;-145.68;100.00;72642.41;10450094;28;20215;-74
2023/09/22 08:29:43;;;;;;;1.00;0.85;;;;;;;-145.68;100.00;72632.41;10448889;28;20210;-74
2023/09/22 08:34:43;;;;;;;1.50;0.93;;;;;;;-145.68;100.00;72644.41;10449109;28;20192;-74
2023/09/22 08:39:44;;;;;;;1.83;1.10;;;;;;;-145.68;100.00;72656.41;10450992;28;20183;-74
2023/09/22 08:44:44;;;;;;;1.33;1.08;;;;;;;-145.68;100.00;72662.38;10447668;28;20228;-74
2023/09/22 08:49:45;;;;;;;1.52;1.30;;;;;;;-145.68;100.00;72672.38;10405783;28;20670;-74
2023/09/22 08:54:46;;;;;;;1.88;1.40;;;;;;;-145.68;100.00;72662.38;10407848;28;20224;-74
2023/09/22 08:59:46;;;;;;;4.97;1.20;;;;;;;-145.68;100.00;72672.38;10408435;28;20196;-73
2023/09/22 09:04:47;;;;;;;2.92;1.05;;;;;;;-145.68;100.00;72696.34;10407249;28;20221;-73
2023/09/22 09:09:48;;;;;;;1.20;1.10;;;;;;;-145.68;100.00;72718.34;10406539;28;20673;-73
2023/09/22 09:14:49;;;;;;;1.65;1.20;;;;;;;-145.68;100.00;72708.34;10402907;28;20544;-73
2023/09/22 09:19:55;;;;;;;1.88;1.17;;;;;;;-145.68;100.00;72708.34;10405345;28;20611;-73
2023/09/22 09:24:59;;;;;;;1.95;1.38;;;;;;;-145.68;100.00;72704.34;10404936;28;20593;-74
2023/09/22 09:30:08;;;;;;;1.60;1.15;;;;;;;-145.68;100.00;72740.31;10405830;28;20204;-74
2023/09/22 09:35:09;;;;;;;3.70;1.30;;;;;;;-145.68;100.00;72748.31;10406080;28;20196;-74
2023/09/22 09:40:10;;;;;;;4.78;3.95;;;;;;;-145.68;100.00;72734.31;10405890;28;20193;-74
2023/09/22 09:45:13;;;;;;;3.33;2.42;;;;;;;-145.68;100.00;72718.34;10405439;28;20311;-74
2023/09/22 09:50:15;;;;;;;2.38;2.05;;;;;;;-145.68;100.00;72712.34;10404038;28;20232;-74
2023/09/22 09:55:15;;;;;;;1.90;1.75;;;;;;;-145.68;100.00;72732.34;10389612;28;20280;-75
2023/09/22 10:00:19;;;;;;;1.13;1.00;;;;;;;-145.68;100.00;72728.34;10403710;28;20192;-75
2023/09/22 10:05:21;;;;;;;2.38;1.25;;;;;;;-145.68;100.00;72724.34;10405362;28;20227;-74
2023/09/22 10:10:22;;;;;;;1.88;1.23;;;;;;;-145.68;100.00;72686.38;10406669;28;20222;-75
2023/09/22 10:15:50;;;;;;;1.65;1.20;;;;;;;-145.68;100.00;72662.38;10403886;28;20191;-74
2023/09/22 10:20:51;;;;;;;1.23;1.10;;;;;;;-145.68;100.00;72660.38;10403532;28;20270;-74
2023/09/22 10:26:16;;;;;;;0.82;0.82;;;;;;;-145.68;100.00;72624.41;10405019;28;20766;-75
2023/09/22 10:31:17;;;;;;;2.17;1.00;;;;;;;-145.68;100.00;72646.41;10405369;28;20692;-74
2023/09/22 10:36:47;;;;;;;1.48;1.13;;;;;;;-145.68;100.00;72604.44;10405088;28;20199;-75
2023/09/22 10:42:00;;;;;;;2.95;1.20;;;;;;;-145.68;100.00;72676.38;10404168;28;20224;-74
2023/09/22 10:47:00;;;;;;;2.25;1.00;;;;;;;-145.68;96.57;72696.34;10408862;28;20232;-75
2023/09/22 10:52:01;;;;;;;1.20;1.10;;;;;;;-145.68;96.59;72690.38;10447416;28;20211;-75
2023/09/22 10:57:01;;;;;;;1.90;1.10;;;;;;;-145.68;99.30;72700.34;10445562;28;20335;-74
2023/09/22 11:02:01;;;;;;;4.05;1.20;;;;;;;-145.68;100.00;72698.34;10427541;28;20243;-75
2023/09/22 11:07:05;;;;;;;2.20;1.20;;;;;;;-145.68;100.00;72652.41;10446435;28;20192;-75
2023/09/22 11:12:05;;;;;;;2.63;1.17;;;;;;;-145.68;100.00;72698.34;10452348;28;20184;-75
2023/09/22 11:17:06;;;;;;;2.13;1.00;;;;;;;-145.68;98.43;72716.34;10450839;28;20204;-74
2023/09/22 11:22:06;;;;;;;1.95;1.08;;;;;;;-145.68;92.73;72732.34;10417685;28;20265;-74
2023/09/22 11:27:07;;;;;;;1.08;0.95;;;;;;;-145.68;87.14;72750.31;10436697;28;20198;-74
2023/09/22 11:32:08;;;;;;;1.30;1.02;;;;;;;-145.68;85.07;72742.31;10451990;28;20250;-74
2023/09/22 11:37:09;;;;;;;1.75;1.13;;;;;;;-145.68;83.98;72760.31;10452034;28;20222;-74
2023/09/22 11:42:09;;;;;;;1.80;0.98;;;;;;;-145.68;79.61;72782.28;10434037;28;20550;-74
2023/09/22 11:47:21;;;;;;;2.60;0.90;;;;;;;-145.68;77.92;72786.28;10435676;28;20231;-74
2023/09/22 11:52:31;;;;;;;2.55;1.00;;;;;;;-145.68;82.22;72786.28;10450867;28;20180;-74
2023/09/22 11:57:31;;;;;;;2.35;0.90;;;;;;;-145.68;85.09;72788.28;10451370;28;20245;-75
2023/09/22 12:02:32;;;;;;;4.93;1.05;;;;;;;-145.68;85.31;72834.25;10433320;28;20435;-74
2023/09/22 12:07:32;;;;;;;1.75;0.85;;;;;;;-145.68;88.45;72846.25;10452282;28;20188;-74
2023/09/22 12:12:33;;;;;;;0.98;0.88;;;;;;;-145.68;94.61;72854.25;10451125;28;20184;-74
2023/09/22 12:17:34;;;;;;;1.75;1.17;;;;;;;-145.68;97.14;72868.22;10450230;28;20219;-74
2023/09/22 12:22:34;;;;;;;1.10;1.00;;;;;;;-145.68;100.00;72878.22;10415730;28;20211;-74
2023/09/22 12:27:35;;;;;;;2.28;1.00;;;;;;;-145.68;99.51;72852.25;10448306;28;20671;-73
2023/09/22 12:32:35;;;;;;;1.70;0.90;;;;;;;-145.68;98.78;72828.25;10449609;28;20451;-74
2023/09/22 12:37:36;;;;;;;1.15;1.08;;;;;;;-145.68;94.27;72824.25;10432173;28;20200;-74
2023/09/22 12:42:38;;;;;;;4.45;1.50;;;;;;;-145.68;93.69;72816.25;10432978;28;20215;-74
2023/09/22 12:47:38;;;;;;;1.55;1.20;;;;;;;-145.68;92.61;72824.25;10449188;28;20342;-75
2023/09/22 12:52:38;;;;;;;2.30;1.38;;;;;;;-145.68;92.46;72796.28;10448466;28;20663;-74
2023/09/22 12:57:39;;;;;;;2.55;1.20;;;;;;;-145.68;92.72;72760.31;10449223;28;20578;-74
2023/09/22 13:02:40;;;;;;;1.73;1.08;;;;;;;-145.68;90.04;72768.31;10450696;28;20220;-74
2023/09/22 13:07:41;;;;;;;1.98;1.40;;;;;;;-145.68;90.23;72800.28;10447957;28;20188;-74
2023/09/22 13:12:43;;;;;;;3.25;1.52;;;;;;;-145.68;88.74;72810.28;10430708;28;20196;-73
2023/09/22 13:17:46;;;;;;;3.70;1.25;;;;;;;-145.68;89.22;72804.28;10447858;28;20207;-74
2023/09/22 13:22:47;;;;;;;0.98;0.90;;;;;;;-145.68;88.54;72764.31;10450081;28;20315;-74
2023/09/22 13:27:48;;;;;;;1.27;1.10;;;;;;;-145.68;88.69;72768.31;10430195;28;20395;-74
2023/09/22 13:32:50;;;;;;;2.63;1.02;;;;;;;-145.68;87.70;72724.34;10446215;28;20241;-74
2023/09/22 13:37:51;;;;;;;1.50;1.23;;;;;;;-145.68;84.34;72736.31;10447758;28;20274;-74
2023/09/22 13:42:51;;;;;;;3.90;1.40;;;;;;;-145.68;82.64;72730.34;10449128;28;20219;-74
2023/09/22 13:47:52;;;;;;;2.45;1.38;;;;;;;-145.68;82.19;72706.34;10446700;28;20761;-74
2023/09/22 13:52:53;;;;;;;4.32;1.27;;;;;;;-145.68;78.97;72716.34;10447321;28;20215;-74
2023/09/22 13:57:53;;;;;;;1.10;1.00;;;;;;;-145.68;81.36;72770.31;10447107;28;20709;-73
2023/09/22 14:02:56;;;;;;;3.78;1.20;;;;;;;-145.68;80.87;72720.34;10448412;28;20211;-74
2023/09/22 14:07:57;;;;;;;2.22;1.10;;;;;;;-145.68;79.17;72680.38;10446596;28;20206;-74
2023/09/22 14:12:57;;;;;;;3.92;1.50;;;;;;;-145.68;75.71;72680.38;10428855;28;20215;-73
2023/09/22 14:17:57;;;;;;;0.80;0.80;;;;;;;-145.68;74.38;72642.41;10448447;28;20196;-73
2023/09/22 14:22:58;;;;;;;4.70;1.20;;;;;;;-145.68;74.23;72652.41;10445895;28;20216;-74
2023/09/22 14:27:59;;;;;;;1.33;1.00;;;;;;;-145.68;71.72;72556.47;10446598;28;20216;-73
2023/09/22 14:33:00;;;;;;;2.65;0.90;;;;;;;-145.68;66.33;72454.56;10445571;28;20195;-74
2023/09/22 14:38:00;;;;;;;2.65;1.08;;;;;;;-145.68;65.80;72554.47;10448360;28;20561;-74
2023/09/22 14:43:01;;;;;;;1.33;1.08;;;;;;;-145.68;64.94;72536.50;10448529;28;20199;-73
2023/09/22 14:48:01;;;;;;;1.65;0.80;;;;;;;-145.68;66.70;72564.47;10453440;28;20269;-73
2023/09/22 14:53:02;;;;;;;1.10;0.85;;;;;;;-145.68;68.36;72580.47;10453742;28;20187;-73
2023/09/22 14:58:02;;;;;;;1.40;0.90;;;;;;;-145.68;68.44;72614.44;10455652;28;20200;-73
2023/09/22 15:03:03;;;;;;;0.98;0.80;;;;;;;-145.68;69.18;72622.41;10453308;28;20679;-73
2023/09/22 15:08:04;;;;;;;2.05;1.00;;;;;;;-145.68;68.97;72642.41;10455505;28;20192;-73
2023/09/22 15:13:05;;;;;;;3.28;0.90;;;;;;;-145.68;69.14;72648.41;10451605;28;20664;-73
2023/09/22 15:18:05;;;;;;;1.77;1.10;;;;;;;-145.68;69.08;72610.44;10447337;28;20546;-74
2023/09/22 15:23:05;;;;;;;4.00;1.70;;;;;;;-145.68;67.47;72576.47;10452405;28;20223;-74
2023/09/22 15:28:06;;;;;;;1.00;1.00;;;;;;;-145.68;66.96;72610.44;10453018;28;20207;-74
2023/09/22 15:33:06;;;;;;;4.78;3.47;;;;;;;-145.68;67.26;72596.44;10455556;28;20188;-74
2023/09/22 15:38:13;;;;;;;3.75;1.08;;;;;;;-145.68;67.22;72672.38;10454041;28;20191;-74
2023/09/22 15:43:13;;;;;;;2.47;0.90;;;;;;;-145.68;67.95;72646.41;10451362;28;20270;-74
2023/09/22 15:48:14;;;;;;;0.77;0.70;;;;;;;-145.68;68.90;72644.41;10433569;28;20239;-74
2023/09/22 15:53:14;;;;;;;2.00;1.05;;;;;;;-145.68;69.67;72658.38;10439103;28;20659;-74
2023/09/22 15:58:15;;;;;;;3.22;0.90;;;;;;;-145.68;70.56;72672.38;10451467;28;20226;-74
2023/09/22 16:03:17;;;;;;;1.30;1.20;;;;;;;-145.68;71.69;72688.38;10450699;28;20216;-74
2023/09/22 16:08:18;;;;;;;2.33;1.00;;;;;;;-145.68;72.51;72680.38;10433347;28;20237;-74
2023/09/22 16:13:18;;;;;;;1.48;1.38;;;;;;;-145.68;73.60;72706.34;10456404;28;20535;-74
2023/09/22 16:18:18;;;;;;;1.05;1.02;;;;;;;-145.68;75.09;72708.34;10450473;28;20195;-74
2023/09/22 16:23:19;;;;;;;4.63;2.00;;;;;;;-145.68;76.33;72710.34;10450494;28;20216;-73
2023/09/22 16:28:20;;;;;;;2.58;1.27;;;;;;;-145.68;78.46;72748.31;10449712;28;20647;-74
2023/09/22 16:33:20;;;;;;;1.65;1.10;;;;;;;-145.68;79.53;72736.31;10438296;28;20196;-74
2023/09/22 16:38:21;;;;;;;2.28;1.33;;;;;;;-145.68;79.90;72734.31;10449975;28;20195;-74
2023/09/22 16:43:22;;;;;;;2.10;1.40;;;;;;;-145.68;81.45;72754.31;10448924;28;20641;-74
2023/09/22 16:48:22;;;;;;;2.35;1.40;;;;;;;-145.68;81.04;72748.31;10448680;28;20236;-73
2023/09/22 16:53:22;;;;;;;1.98;1.60;;;;;;;-145.68;81.41;72784.28;10454820;28;20188;-73
2023/09/22 16:58:23;;;;;;;1.77;1.10;;;;;;;-145.68;81.46;72782.28;10449422;28;20203;-73
2023/09/22 17:03:23;;;;;;;1.58;1.40;;;;;;;-145.68;80.99;72798.28;10448407;28;20234;-73
2023/09/22 17:08:25;;;;;;;1.50;1.00;;;;;;;-145.68;83.13;72838.25;10454110;28;20550;-73
2023/09/22 17:13:25;;;;;;;1.85;1.20;;;;;;;-145.68;82.14;72826.25;10447922;28;20286;-74
2023/09/22 17:18:25;;;;;;;2.65;1.42;;;;;;;-145.68;82.04;72812.28;10448124;28;20576;-73
2023/09/22 17:23:26;;;;;;;1.52;1.20;;;;;;;-145.68;83.12;72838.25;10448193;28;20212;-74
2023/09/22 17:28:26;;;;;;;1.92;1.20;;;;;;;-145.68;85.89;72858.22;10453160;28;20192;-73
2023/09/22 17:33:27;;;;;;;3.17;1.67;;;;;;;-145.68;86.41;72882.22;10447564;28;20794;-73
2023/09/22 17:38:29;;;;;;;1.63;1.10;;;;;;;-145.68;86.35;72882.22;10447499;28;20184;-74
2023/09/22 17:43:31;;;;;;;1.85;1.10;;;;;;;-145.68;88.11;72906.19;10446747;28;20216;-74
2023/09/22 17:48:33;;;;;;;1.50;1.40;;;;;;;-145.68;88.91;72894.22;10452740;28;20242;-74
2023/09/22 17:53:34;;;;;;;2.50;1.20;;;;;;;-145.68;91.34;72908.19;10452557;28;20184;-74
2023/09/22 17:58:35;;;;;;;4.07;1.38;;;;;;;-145.68;91.72;72906.19;10446800;28;20652;-73
2023/09/22 18:03:35;;;;;;;2.13;1.48;;;;;;;-145.68;93.43;72922.19;10446395;28;20224;-74
2023/09/22 18:08:36;;;;;;;1.35;1.25;;;;;;;-145.68;95.22;72910.19;10452338;28;20194;-74
2023/09/22 18:13:37;;;;;;;1.55;1.38;;;;;;;-145.68;95.17;72912.19;10446204;28;20195;-74
2023/09/22 18:18:39;;;;;;;2.15;1.60;;;;;;;-145.68;97.59;72934.19;10451820;28;20180;-74
2023/09/22 18:23:39;;;;;;;2.83;2.22;;;;;;;-145.68;96.95;72900.19;10454924;28;20227;-74
2023/09/22 18:28:41;;;;;;;3.17;1.42;;;;;;;-145.68;97.83;72898.19;10442360;28;20647;-74
2023/09/22 18:33:41;;;;;;;2.83;1.65;;;;;;;-145.68;100.00;72914.19;10454418;28;20504;-73
2023/09/22 18:38:42;;;;;;;4.80;1.90;;;;;;;-145.68;100.00;72936.19;10454110;28;20191;-73
2023/09/22 18:43:42;;;;;;;3.10;1.88;;;;;;;-145.68;100.00;72930.19;10459900;28;20220;-74
2023/09/22 18:48:42;;;;;;;5.30;2.00;;;;;;;-145.68;100.00;72940.16;10435811;28;20707;-74
2023/09/22 18:53:43;;;;;;;3.67;2.10;;;;;;;-145.68;100.00;72938.16;10412135;28;20208;-74
2023/09/22 18:58:45;;;;;;;5.97;2.83;;;;;;;-145.68;100.00;72938.16;10412877;28;20200;-73
2023/09/22 19:03:46;;;;;;;3.67;2.28;;;;;;;-145.68;100.00;72952.16;10417758;28;20216;-73
2023/09/22 19:08:46;;;;;;;2.70;2.13;;;;;;;-145.68;100.00;72958.16;10411918;28;20243;-73
2023/09/22 19:13:47;;;;;;;4.43;2.63;;;;;;;-145.68;100.00;72956.16;10412128;28;20206;-73
2023/09/22 19:18:48;;;;;;;3.47;2.45;;;;;;;-145.68;100.00;72950.16;10411786;28;20247;-73
2023/09/22 19:23:48;;;;;;;3.17;2.50;;;;;;;-145.68;100.00;72950.16;10416733;28;20224;-73
2023/09/22 19:28:49;;;;;;;4.47;2.53;;;;;;;-145.68;100.00;72966.16;10410210;28;20192;-73
2023/09/22 19:33:49;;;;;;;3.03;2.65;;;;;;;-145.68;100.00;72972.16;10411435;28;20200;-73
2023/09/22 19:38:49;;;;;;;2.72;2.50;;;;;;;-145.68;100.00;72956.16;10410770;28;20197;-73
2023/09/22 19:43:50;;;;;;;5.28;3.10;;;;;;;-145.68;100.00;72974.16;10416615;28;20223;-73
2023/09/22 19:48:51;;;;;;;3.13;2.50;;;;;;;-145.68;99.31;72980.13;10429343;28;20622;-74
2023/09/22 19:53:51;;;;;;;3.58;2.63;;;;;;;-145.68;98.62;72974.16;10451201;28;20196;-73
2023/09/22 19:58:52;;;;;;;2.90;2.67;;;;;;;-145.68;100.00;72992.13;10453592;28;20261;-74
2023/09/22 20:03:55;;;;;;;4.93;3.75;;;;;;;-145.68;100.00;72968.16;10454109;28;20223;-73
2023/09/22 20:08:56;;;;;;;6.18;3.28;;;;;;;-145.68;100.00;72972.16;10451389;28;20589;-73
2023/09/22 20:13:58;;;;;;;3.90;3.50;;;;;;;-145.68;100.00;73012.13;10450444;28;20195;-73
2023/09/22 20:19:00;;;;;;;3.10;2.80;;;;;;;-145.68;100.00;73008.13;10449809;28;20184;-73
2023/09/22 20:24:00;;;;;;;3.72;3.25;;;;;;;-145.68;100.00;73030.09;10449989;28;20587;-73
2023/09/22 20:29:02;;;;;;;3.72;3.40;;;;;;;-145.68;100.00;73036.09;10450395;28;20198;-73
2023/09/22 20:34:03;;;;;;;3.90;3.60;;;;;;;-145.68;100.00;73026.09;10431550;28;20200;-73
2023/09/22 20:39:04;;;;;;;4.15;3.80;;;;;;;-145.68;100.00;73042.09;10433537;28;20187;-73
2023/09/22 20:44:05;;;;;;;7.20;3.83;;;;;;;-145.68;100.00;73050.09;10451820;28;20240;-74
2023/09/22 20:49:08;;;;;;;5.18;4.70;;;;;;;-145.68;100.00;73064.09;10430710;28;20228;-74
2023/09/22 20:54:11;;;;;;;5.32;4.75;;;;;;;-145.68;100.00;73064.09;10452292;28;20192;-73
2023/09/22 20:59:13;;;;;;;6.63;5.60;;;;;;;-145.68;100.00;73082.06;10449163;28;20207;-73
2023/09/22 21:04:14;;;;;;;7.65;6.90;;;;;;;-145.68;100.00;73084.06;10430600;28;20219;-74
2023/09/22 21:09:19;;;;;;;10.20;6.70;;;;;;;-145.68;100.00;73072.06;10447857;28;20196;-73
2023/09/22 21:14:21;;;;;;;7.85;7.05;;;;;;;-145.68;100.00;73060.09;10450823;28;20546;-73
2023/09/22 21:19:22;;;;;;;9.45;7.05;;;;;;;-145.68;100.00;73072.06;10447190;28;20226;-73
2023/09/22 21:24:22;;;;;;;10.05;8.48;;;;;;;-145.68;100.00;73072.06;10448160;28;20659;-73
2023/09/22 21:29:23;;;;;;;10.60;8.80;;;;;;;-145.68;100.00;73084.06;10446632;28;20283;-73
2023/09/22 21:34:23;;;;;;;11.32;9.60;;;;;;;-145.68;100.00;73112.03;10430412;28;20257;-74
2023/09/22 21:39:24;;;;;;;10.45;9.00;;;;;;;-145.68;100.00;73102.06;10447496;28;20210;-73
2023/09/22 21:44:25;;;;;;;13.48;9.88;;;;;;;-145.68;100.00;73112.03;10427658;28;20583;-73
2023/09/22 21:49:26;;;;;;;10.98;9.90;;;;;;;-145.68;100.00;73104.06;10428915;28;20251;-73
2023/09/22 21:54:26;;;;;;;12.30;11.00;;;;;;;-145.68;100.00;73142.03;10447603;28;20188;-73
2023/09/22 21:59:27;;;;;;;11.73;10.63;;;;;;;-145.68;100.00;73136.03;10447082;28;20188;-73
2023/09/22 22:04:28;;;;;;;10.93;9.82;;;;;;;-145.68;100.00;73128.03;10446361;28;20222;-74
2023/09/22 22:09:28;;;;;;;11.07;9.65;;;;;;;-145.68;100.00;73134.03;10449168;28;20198;-74
2023/09/22 22:14:29;;;;;;;11.30;9.65;;;;;;;-145.68;100.00;73124.03;10446569;28;20655;-73
2023/09/22 22:19:30;;;;;;;10.88;8.57;;;;;;;-145.68;100.00;73112.03;10444586;28;20184;-74
2023/09/22 22:24:30;;;;;;;10.45;9.45;;;;;;;-145.68;100.00;73136.03;10446667;28;20260;-74
2023/09/22 22:29:31;;;;;;;10.38;9.32;;;;;;;-145.68;100.00;73134.03;10429095;28;20196;-74
2023/09/22 22:34:32;;;;;;;9.80;8.80;;;;;;;-145.68;100.00;73134.03;10445389;28;20267;-73
2023/09/22 22:39:33;;;;;;;9.57;8.60;;;;;;;-145.68;100.00;73148.03;10445739;28;20179;-73
2023/09/22 22:44:36;;;;;;;10.02;8.23;;;;;;;-145.68;100.00;73142.03;10450150;28;20216;-74